Time;durP1;ratioP1;P1;durP2;ratioP2;P2;SDS_P1;SDS_P2;PMS_P1;PMS_P2;Temp;Humidity;BMP_temperature;BMP_pressure;BME280_temperature;BME280_humidity;BME280_pressure;Samples;Min_cycle;Max_cycle;Signal;HPM_P1;HPM_P2
2021/03/22 00:01:06;;;;;;;1.87;1.03;;;5.70;91.20;;;;;;4956202;28;20853;-57
2021/03/22 00:03:39;;;;;;;4.03;2.17;;;5.60;91.50;;;;;;4967151;28;20816;-56
2021/03/22 00:06:08;;;;;;;2.17;1.37;;;5.60;91.40;;;;;;4967557;28;20471;-55
2021/03/22 00:08:36;;;;;;;1.73;1.00;;;5.60;91.60;;;;;;4972721;28;20795;-56
2021/03/22 00:11:06;;;;;;;1.30;0.83;;;5.60;92.00;;;;;;4969390;28;20788;-54
2021/03/22 00:13:38;;;;;;;1.73;1.07;;;5.60;92.80;;;;;;4966265;28;20810;-57
2021/03/22 00:16:09;;;;;;;1.40;0.90;;;5.60;92.00;;;;;;4971375;28;20832;-55
2021/03/22 00:18:41;;;;;;;1.70;1.20;;;5.60;92.20;;;;;;4971062;28;21073;-56
2021/03/22 00:21:12;;;;;;;1.23;1.07;;;5.60;92.10;;;;;;4967144;28;20455;-56
2021/03/22 00:23:40;;;;;;;2.50;0.80;;;5.50;92.30;;;;;;4967218;28;20855;-56
2021/03/22 00:26:10;;;;;;;2.70;1.00;;;5.50;92.20;;;;;;4963866;28;20678;-56
2021/03/22 00:28:42;;;;;;;1.83;0.90;;;5.50;92.70;;;;;;4968589;28;20639;-57
2021/03/22 00:31:12;;;;;;;3.33;1.13;;;5.40;92.80;;;;;;4964849;28;20452;-56
2021/03/22 00:33:41;;;;;;;5.70;2.37;;;5.40;92.60;;;;;;4968392;28;20762;-57
2021/03/22 00:36:10;;;;;;;3.93;1.70;;;5.30;93.00;;;;;;4971289;28;21044;-59
2021/03/22 00:38:39;;;;;;;11.63;1.73;;;5.20;93.60;;;;;;4972380;28;20844;-58
2021/03/22 00:41:11;;;;;;;3.40;1.50;;;5.20;93.70;;;;;;4970875;28;20768;-56
2021/03/22 00:43:39;;;;;;;8.60;1.50;;;5.20;94.50;;;;;;4968564;28;20804;-57
2021/03/22 00:46:07;;;;;;;2.13;1.40;;;5.20;95.00;;;;;;4973215;28;20825;-57
2021/03/22 00:48:37;;;;;;;3.30;1.20;;;5.20;95.50;;;;;;4972863;28;20821;-57
2021/03/22 00:51:07;;;;;;;3.30;1.17;;;5.10;95.90;;;;;;4971729;28;20462;-56
2021/03/22 00:53:36;;;;;;;1.77;1.23;;;5.10;96.20;;;;;;4972434;28;20499;-56
2021/03/22 00:56:05;;;;;;;2.50;1.10;;;5.00;96.80;;;;;;4971791;28;20818;-57
2021/03/22 00:58:35;;;;;;;5.53;1.17;;;5.00;96.90;;;;;;4971876;28;20536;-57
2021/03/22 01:01:04;;;;;;;5.23;2.70;;;5.00;96.50;;;;;;4972537;28;20958;-55
2021/03/22 01:03:34;;;;;;;1.70;1.00;;;4.90;97.30;;;;;;4961521;28;21046;-57
2021/03/22 01:06:04;;;;;;;2.37;1.07;;;4.90;97.60;;;;;;4971846;28;20783;-56
2021/03/22 01:08:35;;;;;;;1.73;0.90;;;4.90;97.80;;;;;;4969573;28;20435;-55
2021/03/22 01:11:08;;;;;;;3.23;1.40;;;4.90;98.10;;;;;;4972023;28;20846;-60
2021/03/22 01:13:39;;;;;;;3.47;1.70;;;4.80;98.70;;;;;;4968545;28;20894;-58
2021/03/22 01:16:08;;;;;;;2.80;1.50;;;4.80;99.10;;;;;;4977301;28;20518;-58
2021/03/22 01:18:39;;;;;;;1.53;1.40;;;4.80;99.60;;;;;;4972371;28;20775;-56
2021/03/22 01:21:11;;;;;;;4.37;1.50;;;4.70;99.90;;;;;;4966013;28;20917;-57
2021/03/22 01:23:39;;;;;;;1.93;1.57;;;4.70;99.90;;;;;;4969999;28;20650;-57
2021/03/22 01:26:08;;;;;;;3.50;1.30;;;4.70;99.90;;;;;;4970508;28;20760;-56
2021/03/22 01:28:38;;;;;;;2.60;1.07;;;4.60;99.90;;;;;;4973033;28;20457;-58
2021/03/22 01:31:07;;;;;;;3.50;1.50;;;4.60;99.90;;;;;;4973621;28;20786;-58
2021/03/22 01:33:36;;;;;;;3.67;1.40;;;4.60;99.90;;;;;;4972739;28;20783;-56
2021/03/22 01:36:08;;;;;;;3.83;1.70;;;4.60;99.90;;;;;;4970787;28;20965;-57
2021/03/22 01:38:37;;;;;;;3.10;1.20;;;4.50;99.90;;;;;;4972515;28;20820;-57
2021/03/22 01:41:35;;;;;;;2.50;1.70;;;4.50;99.90;;;;;;4969738;28;21007;-56
2021/03/22 01:44:20;;;;;;;5.47;1.47;;;4.50;99.90;;;;;;4969803;28;20470;-54
2021/03/22 01:46:51;;;;;;;5.00;1.70;;;4.40;99.90;;;;;;4975098;28;20743;-53
2021/03/22 01:49:21;;;;;;;3.00;1.30;;;4.40;99.90;;;;;;4973409;28;20788;-54
2021/03/22 01:51:50;;;;;;;3.90;1.40;;;4.40;99.90;;;;;;4973618;28;20448;-51
2021/03/22 01:54:18;;;;;;;5.10;2.20;;;4.40;99.90;;;;;;4972085;28;20765;-55
2021/03/22 01:56:51;;;;;;;1.87;1.30;;;4.40;99.90;;;;;;4971265;28;20458;-56
2021/03/22 01:59:27;;;;;;;3.40;1.93;;;4.40;99.90;;;;;;4972656;28;20777;-58
2021/03/22 02:02:00;;;;;;;5.40;1.93;;;4.40;99.90;;;;;;4975794;28;20916;-52
2021/03/22 02:04:29;;;;;;;3.90;1.90;;;4.40;99.90;;;;;;4976940;28;20772;-53
2021/03/22 02:06:58;;;;;;;5.43;1.70;;;4.40;99.90;;;;;;4974853;28;20517;-52
2021/03/22 02:09:26;;;;;;;2.50;1.50;;;4.30;99.90;;;;;;4977313;28;20470;-53
2021/03/22 02:11:55;;;;;;;5.40;1.87;;;4.30;99.90;;;;;;4973893;28;20455;-53
2021/03/22 02:14:24;;;;;;;2.43;1.40;;;4.30;99.90;;;;;;4969089;28;20792;-52
2021/03/22 02:17:02;;;;;;;5.90;1.70;;;4.30;99.90;;;;;;4967670;28;20742;-56
2021/03/22 02:20:08;;;;;;;5.17;2.00;;;4.30;99.90;;;;;;4968485;28;20479;-56
2021/03/22 02:22:53;;;;;;;2.10;1.30;;;4.30;99.90;;;;;;4959357;28;20815;-56
2021/03/22 02:25:27;;;;;;;5.67;2.30;;;4.30;99.90;;;;;;4961761;28;21127;-52
2021/03/22 02:28:23;;;;;;;3.63;1.30;;;4.30;99.90;;;;;;4972344;28;20443;-54
2021/03/22 02:31:33;;;;;;;5.77;1.50;;;4.30;99.90;;;;;;4968569;28;20448;-58
2021/03/22 02:34:30;;;;;;;2.30;1.23;;;4.30;99.90;;;;;;4964026;28;20460;-55
2021/03/22 02:37:24;;;;;;;5.40;1.50;;;4.30;99.90;;;;;;4967954;28;20762;-56
2021/03/22 02:40:03;;;;;;;3.87;2.00;;;4.30;99.90;;;;;;4960227;28;20815;-55
2021/03/22 02:42:32;;;;;;;4.93;1.20;;;4.20;99.90;;;;;;4973788;28;20478;-58
2021/03/22 02:45:00;;;;;;;4.47;2.70;;;4.30;99.90;;;;;;4973678;28;20756;-57
2021/03/22 02:47:33;;;;;;;3.13;1.40;;;4.30;99.90;;;;;;4970796;28;20780;-57
2021/03/22 02:50:08;;;;;;;3.73;1.40;;;4.30;99.90;;;;;;4975218;28;20542;-55
2021/03/22 02:53:11;;;;;;;7.20;1.60;;;4.30;99.90;;;;;;4969149;28;20806;-56
2021/03/22 02:55:50;;;;;;;2.90;1.30;;;4.30;99.90;;;;;;4929960;28;20827;-56
2021/03/22 02:58:21;;;;;;;3.87;2.13;;;4.30;99.90;;;;;;4968588;28;20818;-57
2021/03/22 03:00:58;;;;;;;9.43;3.20;;;4.30;99.90;;;;;;4971201;28;20569;-52
2021/03/22 03:03:28;;;;;;;4.60;1.43;;;4.30;99.90;;;;;;4975471;28;20483;-57
2021/03/22 03:05:58;;;;;;;2.60;1.03;;;4.30;99.90;;;;;;4971987;28;20896;-58
2021/03/22 03:08:32;;;;;;;4.40;1.03;;;4.30;99.90;;;;;;4970540;28;20829;-59
2021/03/22 03:11:01;;;;;;;5.53;1.50;;;4.10;99.90;;;;;;4971393;28;20800;-58
2021/03/22 03:13:29;;;;;;;4.83;1.80;;;4.10;99.90;;;;;;4970366;28;20803;-57
2021/03/22 03:15:57;;;;;;;2.03;1.40;;;4.10;99.90;;;;;;4968627;28;20807;-58
2021/03/22 03:18:26;;;;;;;5.53;1.70;;;4.10;99.90;;;;;;4971699;28;20455;-58
2021/03/22 03:20:56;;;;;;;8.23;1.77;;;4.10;99.90;;;;;;4966902;28;20765;-57
2021/03/22 03:23:26;;;;;;;7.73;1.97;;;4.10;99.90;;;;;;4969300;28;20491;-57
2021/03/22 03:25:54;;;;;;;5.63;1.80;;;4.10;99.90;;;;;;4969431;28;20795;-57
2021/03/22 03:28:22;;;;;;;5.87;1.70;;;4.10;99.90;;;;;;4972113;28;20797;-57
2021/03/22 03:30:51;;;;;;;6.13;1.57;;;4.10;99.90;;;;;;4969345;28;20459;-57
2021/03/22 03:33:19;;;;;;;6.70;1.83;;;4.00;99.90;;;;;;4970768;28;20803;-54
2021/03/22 03:35:48;;;;;;;5.60;2.37;;;4.00;99.90;;;;;;4969805;28;20511;-58
2021/03/22 03:38:16;;;;;;;7.53;2.10;;;4.00;99.90;;;;;;4963529;28;20535;-57
2021/03/22 03:40:47;;;;;;;7.93;1.87;;;4.00;99.90;;;;;;4972061;28;20448;-57
2021/03/22 03:43:18;;;;;;;7.73;1.73;;;4.00;99.90;;;;;;4967568;28;20467;-52
2021/03/22 03:45:49;;;;;;;8.40;2.57;;;3.90;99.90;;;;;;4972957;28;21471;-56
2021/03/22 03:48:21;;;;;;;4.37;2.20;;;3.90;99.90;;;;;;4969948;28;20754;-56
2021/03/22 03:50:50;;;;;;;4.40;2.50;;;3.80;99.90;;;;;;4966107;28;20813;-58
2021/03/22 03:53:18;;;;;;;13.60;2.03;;;3.80;99.90;;;;;;4969688;28;20884;-57
2021/03/22 03:55:48;;;;;;;5.30;2.17;;;3.80;99.90;;;;;;4970254;28;20864;-58
2021/03/22 03:58:17;;;;;;;5.30;2.73;;;3.70;99.90;;;;;;4971070;28;20449;-55
2021/03/22 04:00:49;;;;;;;6.77;3.20;;;3.70;99.90;;;;;;4973522;28;20498;-57
2021/03/22 04:03:26;;;;;;;8.77;2.47;;;3.70;99.90;;;;;;4970188;28;20956;-57
2021/03/22 04:06:00;;;;;;;6.13;2.67;;;3.70;99.90;;;;;;4974169;28;20458;-58
2021/03/22 04:08:30;;;;;;;3.93;1.80;;;3.70;99.90;;;;;;4973195;28;20443;-57
2021/03/22 04:11:02;;;;;;;6.10;2.10;;;3.70;99.90;;;;;;4968020;28;20816;-58
2021/03/22 04:13:31;;;;;;;5.03;1.70;;;3.60;99.90;;;;;;4976819;28;20794;-58
2021/03/22 04:15:59;;;;;;;6.10;2.07;;;3.70;99.90;;;;;;4974446;28;20846;-56
2021/03/22 04:18:28;;;;;;;8.23;2.77;;;3.70;99.90;;;;;;4977139;28;20451;-56
2021/03/22 04:20:56;;;;;;;5.03;2.40;;;3.70;99.90;;;;;;4970014;28;20483;-56
2021/03/22 04:23:24;;;;;;;5.83;2.00;;;3.60;99.90;;;;;;4977011;28;20482;-58
2021/03/22 04:25:52;;;;;;;6.30;3.27;;;3.60;99.90;;;;;;4971011;28;20454;-57
2021/03/22 04:28:22;;;;;;;10.40;1.70;;;3.60;99.90;;;;;;4978530;28;20825;-53
2021/03/22 04:30:50;;;;;;;12.33;3.07;;;3.60;99.90;;;;;;4979945;28;20447;-52
2021/03/22 04:33:18;;;;;;;6.63;2.20;;;3.60;99.90;;;;;;4971477;28;20484;-52
2021/03/22 04:35:47;;;;;;;5.73;2.27;;;3.50;99.90;;;;;;4977975;28;20812;-55
2021/03/22 04:38:15;;;;;;;7.97;2.10;;;3.50;99.90;;;;;;4972631;28;20790;-54
2021/03/22 04:40:44;;;;;;;9.97;2.47;;;3.40;99.90;;;;;;4977766;28;20704;-53
2021/03/22 04:43:12;;;;;;;10.13;2.20;;;3.40;99.90;;;;;;4972145;28;20517;-55
2021/03/22 04:45:42;;;;;;;5.80;2.30;;;3.40;99.90;;;;;;4977650;28;20918;-55
2021/03/22 04:48:10;;;;;;;5.57;1.67;;;3.30;99.90;;;;;;4975908;28;20785;-56
2021/03/22 04:50:38;;;;;;;4.30;1.83;;;3.30;99.90;;;;;;4978611;28;20470;-56
2021/03/22 04:53:07;;;;;;;4.87;1.80;;;3.30;99.90;;;;;;4975260;28;21064;-55
2021/03/22 04:55:36;;;;;;;6.40;2.37;;;3.30;99.90;;;;;;4978300;28;20479;-60
2021/03/22 04:58:04;;;;;;;13.80;3.33;;;3.30;99.90;;;;;;4978564;28;20827;-57
2021/03/22 05:00:36;;;;;;;5.70;2.43;;;3.30;99.90;;;;;;4969971;28;20459;-59
2021/03/22 05:03:06;;;;;;;8.13;2.60;;;3.30;99.90;;;;;;4977015;28;21035;-57
2021/03/22 05:05:35;;;;;;;4.60;2.40;;;3.30;99.90;;;;;;4973869;28;20804;-59
2021/03/22 05:08:04;;;;;;;11.53;2.70;;;3.30;99.90;;;;;;4975126;28;20450;-57
2021/03/22 05:10:37;;;;;;;4.13;2.10;;;3.30;99.90;;;;;;4972533;28;20777;-58
2021/03/22 05:13:06;;;;;;;13.77;3.33;;;3.30;99.90;;;;;;4986008;28;20485;-56
2021/03/22 05:15:34;;;;;;;15.70;3.40;;;3.30;99.90;;;;;;4985860;28;20534;-58
2021/03/22 05:18:03;;;;;;;13.40;2.50;;;3.30;99.90;;;;;;4985689;28;20451;-58
2021/03/22 05:20:34;;;;;;;5.33;2.53;;;3.30;99.90;;;;;;4985305;28;20924;-58
2021/03/22 05:23:04;;;;;;;8.00;2.77;;;3.30;99.90;;;;;;4985308;28;20807;-57
2021/03/22 05:25:33;;;;;;;4.67;2.13;;;3.40;99.90;;;;;;4986646;28;20788;-57
2021/03/22 05:28:04;;;;;;;8.17;2.50;;;3.30;99.90;;;;;;4986364;28;20469;-57
2021/03/22 05:30:33;;;;;;;10.20;2.67;;;3.30;99.90;;;;;;4985792;28;20503;-58
2021/03/22 05:33:04;;;;;;;7.57;3.20;;;3.40;99.90;;;;;;4985425;28;20455;-58
2021/03/22 05:35:34;;;;;;;9.70;2.23;;;3.40;99.90;;;;;;4985472;28;20814;-58
2021/03/22 05:38:04;;;;;;;21.20;2.97;;;3.40;99.90;;;;;;4985817;28;20869;-57
2021/03/22 05:40:36;;;;;;;4.50;2.80;;;3.40;99.90;;;;;;4985263;28;20765;-57
2021/03/22 05:43:16;;;;;;;6.97;3.27;;;3.40;99.90;;;;;;4986314;28;20855;-58
2021/03/22 05:46:06;;;;;;;15.67;3.90;;;3.50;99.90;;;;;;4984912;28;20458;-57
2021/03/22 05:48:51;;;;;;;6.60;2.80;;;3.50;99.90;;;;;;4985200;28;20822;-59
2021/03/22 05:51:39;;;;;;;10.20;3.20;;;3.50;99.90;;;;;;4983912;28;20796;-59
2021/03/22 05:54:24;;;;;;;8.13;2.37;;;3.50;99.90;;;;;;4983960;28;20442;-53
2021/03/22 05:57:01;;;;;;;8.63;3.10;;;3.50;99.90;;;;;;4985386;28;20754;-53
2021/03/22 05:59:37;;;;;;;10.33;3.60;;;3.50;99.90;;;;;;4985218;28;20464;-55
2021/03/22 06:02:11;;;;;;;9.40;3.43;;;3.50;99.90;;;;;;4984639;28;20446;-55
2021/03/22 06:04:43;;;;;;;7.03;2.80;;;3.60;99.90;;;;;;4984138;28;20756;-58
2021/03/22 06:07:16;;;;;;;8.37;3.10;;;3.50;99.90;;;;;;4984171;28;20908;-56
2021/03/22 06:09:53;;;;;;;23.10;4.10;;;3.60;99.90;;;;;;4975990;28;20804;-58
2021/03/22 06:12:36;;;;;;;6.20;3.23;;;3.60;99.90;;;;;;4964838;29;20964;-56
2021/03/22 06:15:27;;;;;;;8.03;3.10;;;3.70;99.90;;;;;;4964569;29;20781;-55
2021/03/22 06:18:05;;;;;;;10.70;2.80;;;3.60;99.90;;;;;;4964985;29;20796;-56
2021/03/22 06:20:36;;;;;;;6.73;3.03;;;3.60;99.90;;;;;;4961492;28;20794;-54
2021/03/22 06:23:09;;;;;;;11.10;2.97;;;3.60;99.90;;;;;;4963239;28;20480;-56
2021/03/22 06:25:37;;;;;;;9.30;3.40;;;3.70;99.90;;;;;;4959209;28;20443;-57
2021/03/22 06:28:19;;;;;;;7.80;3.30;;;3.70;99.90;;;;;;4966459;28;20999;-56
2021/03/22 06:30:58;;;;;;;8.80;2.87;;;3.80;99.90;;;;;;4973595;28;20746;-56
2021/03/22 06:33:31;;;;;;;8.50;2.97;;;3.80;99.90;;;;;;4967411;28;20857;-55
2021/03/22 06:35:59;;;;;;;20.10;4.07;;;3.90;99.90;;;;;;4962252;29;20527;-59
2021/03/22 06:38:29;;;;;;;10.20;2.67;;;3.90;99.90;;;;;;4965249;28;20837;-58
2021/03/22 06:40:57;;;;;;;5.60;2.53;;;4.00;99.90;;;;;;4943953;29;20497;-57
2021/03/22 06:43:27;;;;;;;7.00;2.77;;;4.00;99.90;;;;;;4944091;29;20484;-57
2021/03/22 06:46:12;;;;;;;10.50;3.93;;;4.10;99.90;;;;;;4944357;29;20758;-56
2021/03/22 07:22:22;;;;;;;12.00;3.77;;;5.50;99.90;;;;;;5525256;23;20724;-58
2021/03/22 07:24:59;;;;;;;18.00;4.03;;;5.70;99.90;;;;;;4972159;28;20473;-59
2021/03/22 07:27:32;;;;;;;9.00;3.17;;;5.70;99.90;;;;;;4971197;28;20795;-57
2021/03/22 07:30:21;;;;;;;6.80;2.70;;;5.80;99.90;;;;;;4963603;28;21107;-59
2021/03/22 07:32:53;;;;;;;13.20;3.57;;;5.90;99.90;;;;;;4970159;28;20785;-60
2021/03/22 07:35:43;;;;;;;9.60;3.20;;;6.00;99.90;;;;;;4966411;28;20846;-57
2021/03/22 07:38:23;;;;;;;9.90;2.87;;;6.10;99.90;;;;;;4967977;28;20456;-59
2021/03/22 07:40:54;;;;;;;14.73;3.50;;;6.20;99.90;;;;;;4961578;28;20454;-58
2021/03/22 07:43:46;;;;;;;9.93;3.10;;;6.30;99.90;;;;;;4966486;28;20770;-59
2021/03/22 07:46:27;;;;;;;7.53;3.50;;;6.40;99.90;;;;;;4970874;28;20877;-58
2021/03/22 07:49:24;;;;;;;8.73;3.17;;;6.50;99.90;;;;;;4965501;28;20467;-59
2021/03/22 07:52:26;;;;;;;14.93;4.43;;;6.70;99.90;;;;;;4962842;28;20483;-57
2021/03/22 07:55:10;;;;;;;7.93;3.20;;;6.90;99.90;;;;;;4972176;28;20470;-54
2021/03/22 07:57:46;;;;;;;7.57;2.70;;;7.00;99.90;;;;;;4969174;28;20491;-55
2021/03/22 08:00:21;;;;;;;11.80;3.40;;;7.20;99.90;;;;;;4958775;28;20804;-55
2021/03/22 08:03:06;;;;;;;7.20;3.10;;;7.30;99.90;;;;;;4965691;28;20972;-57
2021/03/22 08:05:45;;;;;;;11.53;3.10;;;7.40;99.90;;;;;;4978117;28;20447;-58
2021/03/22 08:08:22;;;;;;;18.83;3.40;;;7.60;99.90;;;;;;4955296;28;20471;-58
2021/03/22 08:11:00;;;;;;;14.37;3.30;;;7.80;99.90;;;;;;4960595;29;20840;-58
2021/03/22 08:13:43;;;;;;;14.57;3.33;;;8.00;99.90;;;;;;4967069;28;20466;-59
2021/03/22 08:16:27;;;;;;;6.93;2.70;;;8.00;99.90;;;;;;4975119;28;21106;-57
2021/03/22 08:18:56;;;;;;;4.00;2.63;;;8.20;99.90;;;;;;4962235;28;20793;-57
2021/03/22 08:21:30;;;;;;;7.23;2.60;;;8.30;99.90;;;;;;4960220;28;20793;-59
2021/03/22 08:24:04;;;;;;;8.33;2.20;;;8.40;99.90;;;;;;4960816;29;20490;-59
2021/03/22 08:26:38;;;;;;;4.83;2.90;;;8.60;99.90;;;;;;4960660;28;20458;-57
2021/03/22 08:29:13;;;;;;;7.50;2.47;;;8.90;99.90;;;;;;4962328;28;20501;-56
2021/03/22 08:31:46;;;;;;;8.80;3.20;;;9.20;99.50;;;;;;4961669;28;20782;-56
2021/03/22 08:34:20;;;;;;;9.00;3.37;;;10.20;94.90;;;;;;4957930;28;20790;-57
2021/03/22 08:36:59;;;;;;;7.73;2.43;;;11.20;88.90;;;;;;4967207;28;20453;-57
2021/03/22 08:39:31;;;;;;;6.60;2.60;;;12.20;75.50;;;;;;4973719;28;21068;-56
2021/03/22 08:42:11;;;;;;;4.27;2.50;;;13.20;70.30;;;;;;4963051;28;20518;-56
2021/03/22 08:44:46;;;;;;;4.90;2.40;;;14.30;59.90;;;;;;4962440;28;20844;-55
2021/03/22 08:47:43;;;;;;;6.90;3.20;;;15.60;56.80;;;;;;4961088;28;21042;-48
2021/03/22 08:50:14;;;;;;;4.80;3.33;;;17.00;51.60;;;;;;4967523;28;20600;-48
2021/03/22 08:52:49;;;;;;;5.07;2.73;;;17.90;48.90;;;;;;4967412;28;20914;-48
2021/03/22 08:55:21;;;;;;;6.10;2.67;;;18.30;45.90;;;;;;4961881;28;20792;-46
2021/03/22 08:57:59;;;;;;;5.73;3.00;;;18.30;44.20;;;;;;4963172;28;20779;-55
2021/03/22 09:00:33;;;;;;;9.33;3.27;;;18.30;44.10;;;;;;4971583;28;20458;-46
2021/03/22 09:03:04;;;;;;;9.73;4.33;;;18.20;43.80;;;;;;4966557;28;20859;-49
2021/03/22 09:05:34;;;;;;;5.90;3.10;;;17.90;45.10;;;;;;4969301;28;20770;-51
2021/03/22 09:08:20;;;;;;;9.57;2.73;;;17.90;44.00;;;;;;4967257;28;20844;-45
2021/03/22 09:10:50;;;;;;;4.80;2.50;;;17.70;43.50;;;;;;4963668;28;20459;-50
2021/03/22 09:13:34;;;;;;;9.03;5.10;;;17.50;43.30;;;;;;4969024;28;20851;-46
2021/03/22 09:16:37;;;;;;;6.60;3.10;;;17.30;43.30;;;;;;4955512;28;20789;-49
2021/03/22 09:19:39;;;;;;;7.93;3.00;;;17.10;43.30;;;;;;4968604;28;20795;-49
2021/03/22 09:22:43;;;;;;;10.97;3.90;;;17.10;44.00;;;;;;4969000;28;20926;-46
2021/03/22 09:25:14;;;;;;;9.90;3.67;;;16.90;44.50;;;;;;4966010;28;20741;-47
2021/03/22 09:27:43;;;;;;;7.40;3.07;;;16.50;44.00;;;;;;4971862;28;20839;-46
2021/03/22 09:30:42;;;;;;;6.40;2.40;;;16.10;44.70;;;;;;4958895;28;20491;-49
2021/03/22 09:33:10;;;;;;;3.33;2.43;;;15.80;44.00;;;;;;4926472;29;20845;-48
2021/03/22 09:36:05;;;;;;;5.13;2.60;;;15.60;43.80;;;;;;4958754;28;20781;-48
2021/03/22 09:38:42;;;;;;;3.83;1.77;;;15.60;43.60;;;;;;4973635;28;20800;-44
2021/03/22 09:41:11;;;;;;;4.07;1.77;;;15.20;43.30;;;;;;4961130;28;20943;-46
2021/03/22 09:43:41;;;;;;;13.40;2.87;;;14.80;44.70;;;;;;4970027;28;20574;-47
2021/03/22 09:46:41;;;;;;;4.57;1.80;;;14.60;46.50;;;;;;4963530;28;20759;-45
2021/03/22 09:49:54;;;;;;;3.30;2.20;;;14.50;45.40;;;;;;4972042;28;20465;-45
2021/03/22 09:52:28;;;;;;;5.93;2.70;;;15.00;46.10;;;;;;4960702;28;20790;-47
2021/03/22 09:54:58;;;;;;;2.90;2.13;;;16.00;46.10;;;;;;4958425;28;20929;-50
2021/03/22 09:57:41;;;;;;;7.80;2.70;;;16.50;44.80;;;;;;4967083;28;20778;-45
2021/03/22 10:00:26;;;;;;;8.03;2.93;;;17.00;43.70;;;;;;4953652;28;20949;-47
2021/03/22 10:02:57;;;;;;;5.67;2.13;;;17.90;43.10;;;;;;4957908;28;20479;-47
2021/03/22 10:05:30;;;;;;;6.77;2.20;;;18.90;41.50;;;;;;4954031;28;20829;-46
2021/03/22 10:08:06;;;;;;;9.07;3.23;;;19.70;39.10;;;;;;4966923;28;20796;-50
2021/03/22 10:10:38;;;;;;;3.83;2.33;;;20.40;37.70;;;;;;4962771;28;20794;-48
2021/03/22 10:13:18;;;;;;;9.13;3.20;;;20.60;35.50;;;;;;4970126;28;20786;-48
2021/03/22 10:15:53;;;;;;;4.27;2.20;;;20.90;35.70;;;;;;4966679;28;20800;-48
2021/03/22 10:18:28;;;;;;;3.20;2.17;;;21.30;35.00;;;;;;4961816;28;20827;-48
2021/03/22 10:21:08;;;;;;;3.60;2.20;;;21.60;33.30;;;;;;4967235;28;20768;-45
2021/03/22 10:23:40;;;;;;;4.73;1.80;;;21.90;31.80;;;;;;4950902;29;20866;-46
2021/03/22 10:26:12;;;;;;;2.13;1.50;;;22.10;30.50;;;;;;4942207;29;20817;-48
2021/03/22 10:28:41;;;;;;;2.67;2.00;;;22.10;31.10;;;;;;4948253;29;20818;-46
2021/03/22 10:31:17;;;;;;;3.03;1.83;;;21.90;31.80;;;;;;4945622;29;20896;-49
2021/03/22 10:33:52;;;;;;;4.07;1.80;;;21.90;31.00;;;;;;4946950;29;20767;-47
2021/03/22 10:36:30;;;;;;;4.37;2.37;;;21.80;30.90;;;;;;4942782;29;20809;-45
2021/03/22 10:41:34;;;;;;;8.13;1.73;;;21.60;30.90;;;;;;4996813;23;20569;-48
2021/03/22 10:44:05;;;;;;;4.90;1.97;;;21.00;30.40;;;;;;4985695;28;20865;-48
2021/03/22 10:46:35;;;;;;;5.03;1.83;;;20.30;31.50;;;;;;4983930;28;20459;-45
2021/03/22 10:49:07;;;;;;;4.43;1.50;;;19.90;31.10;;;;;;4985921;28;20815;-45
2021/03/22 10:51:46;;;;;;;1.93;1.47;;;19.60;30.70;;;;;;4984588;28;20467;-44
2021/03/22 10:54:16;;;;;;;3.33;1.47;;;19.20;30.60;;;;;;4979694;28;20842;-45
2021/03/22 10:56:54;;;;;;;2.93;1.50;;;18.90;32.60;;;;;;4988010;28;20767;-48
2021/03/22 10:59:26;;;;;;;2.90;1.53;;;18.80;32.90;;;;;;4993053;28;20883;-47
2021/03/22 11:01:57;;;;;;;1.70;1.27;;;18.60;32.90;;;;;;4982019;28;20506;-44
2021/03/22 11:04:30;;;;;;;3.00;1.03;;;18.20;32.80;;;;;;4984351;28;20788;-44
2021/03/22 11:06:58;;;;;;;4.47;1.43;;;17.90;33.40;;;;;;4985809;28;20810;-47
2021/03/22 11:09:29;;;;;;;2.70;1.30;;;17.70;34.00;;;;;;4984091;28;20787;-46
2021/03/22 11:11:59;;;;;;;5.03;1.43;;;17.30;33.80;;;;;;4985263;28;20795;-44
2021/03/22 11:14:31;;;;;;;4.70;1.70;;;16.90;34.10;;;;;;4985786;28;20787;-46
2021/03/22 11:17:04;;;;;;;6.70;1.47;;;16.50;35.90;;;;;;4984991;28;20795;-44
2021/03/22 11:19:41;;;;;;;2.37;1.50;;;16.20;35.50;;;;;;4983498;28;20939;-44
2021/03/22 11:22:36;;;;;;;2.03;1.40;;;15.90;36.30;;;;;;4977367;28;20522;-44
2021/03/22 11:25:26;;;;;;;1.60;1.20;;;15.70;38.50;;;;;;4974357;28;20731;-45
2021/03/22 11:27:57;;;;;;;3.10;2.07;;;15.60;38.50;;;;;;4974508;28;20837;-50
2021/03/22 11:30:33;;;;;;;3.50;1.73;;;15.30;37.70;;;;;;4984860;28;20798;-46
2021/03/22 11:33:08;;;;;;;2.57;1.57;;;14.90;38.30;;;;;;4972624;28;20786;-46
2021/03/22 11:35:37;;;;;;;3.33;1.87;;;14.30;38.30;;;;;;4984621;28;20802;-43
2021/03/22 11:38:17;;;;;;;4.73;1.73;;;13.90;39.40;;;;;;4983662;28;20787;-46
2021/03/22 11:40:45;;;;;;;2.33;1.57;;;13.70;39.30;;;;;;4987319;28;20789;-46
2021/03/22 11:43:27;;;;;;;3.33;1.40;;;13.50;39.30;;;;;;4991573;28;20494;-46
2021/03/22 11:45:56;;;;;;;2.00;1.43;;;13.40;38.70;;;;;;4983323;28;20782;-46
2021/03/22 11:48:39;;;;;;;2.27;1.20;;;13.30;39.00;;;;;;4980157;28;20496;-48
2021/03/22 11:51:09;;;;;;;4.60;1.20;;;13.30;38.70;;;;;;4988817;28;20796;-46
2021/03/22 11:54:04;;;;;;;3.17;1.10;;;13.40;38.50;;;;;;4989837;28;20821;-50
2021/03/22 11:56:33;;;;;;;5.53;1.30;;;13.30;37.70;;;;;;4977911;28;20837;-48
2021/03/22 11:59:24;;;;;;;1.53;1.00;;;13.20;38.40;;;;;;4986931;28;20840;-45
2021/03/22 12:02:18;;;;;;;3.07;1.63;;;13.10;37.70;;;;;;4981733;28;20455;-45
2021/03/22 12:04:53;;;;;;;5.80;1.30;;;12.90;38.50;;;;;;4987041;28;20803;-44
2021/03/22 12:07:38;;;;;;;3.53;1.20;;;12.90;38.60;;;;;;4982331;28;20792;-43
2021/03/22 12:10:25;;;;;;;2.37;1.77;;;12.90;40.40;;;;;;4977077;28;20477;-44
2021/03/22 12:12:53;;;;;;;8.90;1.60;;;12.90;40.80;;;;;;4984017;28;21141;-44
2021/03/22 12:15:22;;;;;;;2.10;1.10;;;13.00;41.20;;;;;;4986094;28;20772;-44
2021/03/22 12:17:55;;;;;;;1.90;1.60;;;12.90;40.50;;;;;;4979768;28;20853;-45
2021/03/22 12:20:27;;;;;;;2.40;1.13;;;13.00;40.00;;;;;;4986618;28;20491;-45
2021/03/22 12:22:55;;;;;;;3.47;1.43;;;12.80;39.40;;;;;;4984412;28;20783;-46
2021/03/22 12:25:27;;;;;;;7.57;1.50;;;12.70;40.00;;;;;;4979161;28;20810;-46
2021/03/22 12:27:56;;;;;;;1.73;1.37;;;12.80;40.20;;;;;;4985151;28;20490;-47
2021/03/22 12:30:27;;;;;;;2.50;1.37;;;12.90;40.00;;;;;;4983584;28;20783;-50
2021/03/22 12:32:56;;;;;;;2.70;1.40;;;12.80;40.70;;;;;;4992442;28;20842;-48
2021/03/22 12:35:26;;;;;;;4.17;1.40;;;12.90;41.10;;;;;;4992933;28;20835;-43
2021/03/22 12:37:55;;;;;;;4.30;1.63;;;13.00;41.40;;;;;;4981999;28;20817;-46
2021/03/22 12:40:25;;;;;;;3.80;1.37;;;13.10;40.90;;;;;;4989790;28;20811;-45
2021/03/22 12:42:56;;;;;;;1.40;1.13;;;12.90;40.70;;;;;;4993290;28;20832;-45
2021/03/22 12:45:27;;;;;;;1.60;1.10;;;12.70;41.00;;;;;;4987519;28;20966;-47
2021/03/22 12:47:55;;;;;;;1.57;1.07;;;12.80;41.40;;;;;;4987912;28;20939;-46
2021/03/22 12:50:26;;;;;;;2.20;1.50;;;12.70;40.90;;;;;;4987950;28;20924;-46
2021/03/22 12:52:54;;;;;;;2.00;1.13;;;12.70;41.90;;;;;;4989479;28;20459;-45
2021/03/22 12:55:29;;;;;;;2.20;1.87;;;12.70;42.20;;;;;;4985742;28;20907;-45
2021/03/22 12:57:59;;;;;;;3.80;1.47;;;12.70;43.30;;;;;;4991115;28;20819;-45
2021/03/22 13:00:30;;;;;;;6.00;1.60;;;12.60;43.40;;;;;;4990349;28;20820;-45
2021/03/22 13:02:58;;;;;;;4.63;1.70;;;12.50;43.30;;;;;;4995887;28;20837;-50
2021/03/22 13:05:29;;;;;;;5.07;1.53;;;12.50;43.80;;;;;;4995459;28;20802;-46
2021/03/22 13:07:58;;;;;;;2.97;1.10;;;12.60;43.00;;;;;;4985448;28;21224;-44
2021/03/22 13:10:31;;;;;;;1.90;1.03;;;12.60;40.90;;;;;;4993315;28;20828;-45
2021/03/22 13:13:00;;;;;;;2.43;1.30;;;12.40;40.40;;;;;;4994142;28;21032;-45
2021/03/22 13:15:33;;;;;;;4.73;1.43;;;12.40;41.30;;;;;;4975611;28;20871;-47
2021/03/22 13:18:04;;;;;;;3.70;1.10;;;12.50;40.70;;;;;;4991268;28;20541;-44
2021/03/22 13:20:32;;;;;;;2.67;1.10;;;12.60;40.70;;;;;;4984219;28;20788;-47
2021/03/22 13:23:00;;;;;;;5.37;1.37;;;12.60;40.80;;;;;;4983846;28;20763;-46
2021/03/22 13:25:30;;;;;;;2.47;1.20;;;12.40;41.70;;;;;;4993070;28;20796;-46
2021/03/22 13:27:58;;;;;;;4.30;1.40;;;12.50;41.10;;;;;;4989320;28;20794;-47
2021/03/22 13:30:27;;;;;;;6.00;1.40;;;12.70;41.10;;;;;;4988991;28;20443;-51
2021/03/22 13:32:55;;;;;;;2.60;1.30;;;12.70;40.40;;;;;;4986623;28;20904;-50
2021/03/22 13:35:27;;;;;;;2.80;1.30;;;12.90;41.10;;;;;;4987988;28;20779;-45
2021/03/22 13:37:55;;;;;;;2.93;1.10;;;13.00;40.40;;;;;;4984763;28;20963;-45
2021/03/22 13:40:24;;;;;;;2.60;1.30;;;13.10;39.90;;;;;;4987049;28;20959;-47
2021/03/22 13:42:53;;;;;;;2.77;1.27;;;13.20;40.10;;;;;;4982379;28;20957;-45
2021/03/22 13:45:25;;;;;;;3.27;1.57;;;13.20;39.90;;;;;;4981812;28;20756;-45
2021/03/22 13:47:54;;;;;;;1.73;1.30;;;13.30;40.10;;;;;;4985988;28;20784;-44
2021/03/22 13:50:21;;;;;;;1.63;0.90;;;13.30;39.60;;;;;;4984875;28;20769;-49
2021/03/22 13:52:50;;;;;;;5.17;2.57;;;13.30;39.00;;;;;;4986072;28;20753;-46
2021/03/22 13:55:19;;;;;;;1.77;1.00;;;13.30;38.10;;;;;;4986347;28;20836;-44
2021/03/22 13:57:48;;;;;;;6.33;3.80;;;13.40;38.90;;;;;;4991061;28;20811;-45
2021/03/22 14:00:19;;;;;;;4.33;2.30;;;13.40;39.50;;;;;;4991614;28;20780;-43
2021/03/22 14:02:50;;;;;;;2.73;1.53;;;13.40;39.90;;;;;;4977647;28;20928;-46
2021/03/22 14:05:21;;;;;;;1.60;1.10;;;13.40;40.70;;;;;;4978014;28;20840;-47